createdAt,value
2019-02-18T00:00:16.586Z,1011.51
2019-02-18T00:01:16.564Z,1011.53
2019-02-18T00:02:16.547Z,1011.52
2019-02-18T00:03:16.528Z,1011.54
2019-02-18T00:04:16.513Z,1011.55
2019-02-18T00:05:16.486Z,1011.53
2019-02-18T00:06:16.468Z,1011.51
2019-02-18T00:07:16.449Z,1011.52
2019-02-18T00:08:16.428Z,1011.55
2019-02-18T00:09:16.415Z,1011.54
2019-02-18T00:10:16.389Z,1011.56
2019-02-18T00:11:16.373Z,1011.53
2019-02-18T00:12:16.353Z,1011.53
2019-02-18T00:13:16.332Z,1011.55
2019-02-18T00:14:16.316Z,1011.55
2019-02-18T00:15:16.298Z,1011.54
2019-02-18T00:16:16.274Z,1011.53
2019-02-18T00:17:16.257Z,1011.55
2019-02-18T00:18:16.235Z,1011.52
2019-02-18T00:19:16.229Z,1011.55
2019-02-18T00:20:16.200Z,1011.52
2019-02-18T00:21:16.175Z,1011.53
2019-02-18T00:22:16.154Z,1011.5
2019-02-18T00:23:16.136Z,1011.51
2019-02-18T00:24:16.117Z,1011.52
2019-02-18T00:25:16.096Z,1011.48
2019-02-18T00:26:16.079Z,1011.5
2019-02-18T00:27:16.062Z,1011.49
2019-02-18T00:28:16.041Z,1011.49
2019-02-18T00:29:16.058Z,1011.44
2019-02-18T00:30:16.000Z,1011.44
2019-02-18T00:31:15.983Z,1011.43
2019-02-18T00:32:15.979Z,1011.41
2019-02-18T00:33:15.943Z,1011.42
2019-02-18T00:34:15.928Z,1011.4
2019-02-18T00:35:15.908Z,1011.45
2019-02-18T00:36:15.888Z,1011.45
2019-02-18T00:37:24.086Z,1011.47
2019-02-18T00:38:15.858Z,1011.44
2019-02-18T00:39:15.822Z,1011.47
2019-02-18T00:40:15.810Z,1011.45
2019-02-18T00:41:15.782Z,1011.47
2019-02-18T00:42:15.765Z,1011.47
2019-02-18T00:43:15.742Z,1011.48
2019-02-18T00:44:15.728Z,1011.46
2019-02-18T00:45:15.707Z,1011.48
2019-02-18T00:46:15.684Z,1011.49
2019-02-18T00:47:15.665Z,1011.5
2019-02-18T00:48:15.648Z,1011.49
2019-02-18T00:49:15.628Z,1011.49
2019-02-18T00:50:15.604Z,1011.5
2019-02-18T00:51:15.590Z,1011.47
2019-02-18T00:52:15.567Z,1011.48
2019-02-18T00:53:15.545Z,1011.49
2019-02-18T00:54:15.527Z,1011.44
2019-02-18T00:55:15.507Z,1011.48
2019-02-18T00:56:15.487Z,1011.5
2019-02-18T00:57:15.472Z,1011.52
2019-02-18T00:58:15.448Z,1011.45
2019-02-18T00:59:15.428Z,1011.49
2019-02-18T01:00:15.408Z,1011.47
2019-02-18T01:01:15.387Z,1011.48
2019-02-18T01:02:15.372Z,1011.46
2019-02-18T01:03:15.357Z,1011.46
2019-02-18T01:04:15.329Z,1011.44
2019-02-18T01:05:15.355Z,1011.43
2019-02-18T01:06:15.291Z,1011.45
2019-02-18T01:07:15.268Z,1011.46
2019-02-18T01:08:15.258Z,1011.47
2019-02-18T01:09:15.230Z,1011.48
2019-02-18T01:10:15.211Z,1011.46
2019-02-18T01:11:15.197Z,1011.46
2019-02-18T01:12:15.182Z,1011.42
2019-02-18T01:13:15.151Z,1011.51
2019-02-18T01:14:15.135Z,1011.47
2019-02-18T01:15:15.114Z,1011.47
2019-02-18T01:16:15.093Z,1011.47
2019-02-18T01:17:15.069Z,1011.43
2019-02-18T01:18:15.049Z,1011.43
2019-02-18T01:19:15.034Z,1011.47
2019-02-18T01:20:15.010Z,1011.46
2019-02-18T01:21:14.990Z,1011.44
2019-02-18T01:22:14.971Z,1011.4
2019-02-18T01:23:14.955Z,1011.45
2019-02-18T01:24:14.934Z,1011.41
2019-02-18T01:25:14.910Z,1011.4
2019-02-18T01:26:14.892Z,1011.42
2019-02-18T01:27:14.874Z,1011.4
2019-02-18T01:28:14.852Z,1011.35
2019-02-18T01:29:14.833Z,1011.42
2019-02-18T01:30:14.822Z,1011.36
2019-02-18T01:31:14.791Z,1011.36
2019-02-18T01:32:14.771Z,1011.33
2019-02-18T01:33:14.755Z,1011.32
2019-02-18T01:34:14.735Z,1011.33
2019-02-18T01:35:14.722Z,1011.36
2019-02-18T01:36:14.690Z,1011.33
2019-02-18T01:37:14.670Z,1011.33
2019-02-18T01:38:14.653Z,1011.33
2019-02-18T01:39:14.635Z,1011.3
2019-02-18T01:40:14.615Z,1011.3
2019-02-18T01:41:14.593Z,1011.32
2019-02-18T01:42:14.570Z,1011.33
2019-02-18T01:43:14.570Z,1011.34
2019-02-18T01:44:14.531Z,1011.32
2019-02-18T01:45:14.509Z,1011.3
2019-02-18T01:46:14.494Z,1011.28
2019-02-18T01:47:14.469Z,1011.31
2019-02-18T01:48:14.450Z,1011.29
2019-02-18T01:49:14.435Z,1011.28
2019-02-18T01:50:14.430Z,1011.29
2019-02-18T01:51:14.393Z,1011.3
2019-02-18T01:52:14.370Z,1011.27
2019-02-18T01:53:14.350Z,1011.3
2019-02-18T01:54:14.330Z,1011.25
2019-02-18T01:55:14.309Z,1011.28
2019-02-18T01:56:14.323Z,1011.25
2019-02-18T01:57:14.268Z,1011.24
2019-02-18T01:58:14.250Z,1011.21
2019-02-18T01:59:14.227Z,1011.25
2019-02-18T02:00:14.209Z,1011.23
2019-02-18T02:01:14.190Z,1011.22
2019-02-18T02:02:14.168Z,1011.18
2019-02-18T02:03:14.147Z,1011.24
2019-02-18T02:04:14.132Z,1011.17
2019-02-18T02:05:14.108Z,1011.15
2019-02-18T02:06:14.089Z,1011.2
2019-02-18T02:07:14.067Z,1011.14
2019-02-18T02:08:14.051Z,1011.13
2019-02-18T02:09:14.032Z,1011.12
2019-02-18T02:10:14.014Z,1011.13
2019-02-18T02:11:13.991Z,1011.11
2019-02-18T02:12:13.964Z,1011.11
2019-02-18T02:13:13.945Z,1011.1
2019-02-18T02:14:13.927Z,1011.09
2019-02-18T02:15:13.908Z,1011.08
2019-02-18T02:16:13.886Z,1011.05
2019-02-18T02:17:13.868Z,1011.1
2019-02-18T02:18:13.845Z,1011.08
2019-02-18T02:19:13.824Z,1011.06
2019-02-18T02:20:13.806Z,1011.04
2019-02-18T02:21:13.787Z,1011.02
2019-02-18T02:22:13.765Z,1011.03
2019-02-18T02:23:13.744Z,1011.02
2019-02-18T02:24:13.724Z,1010.97
2019-02-18T02:25:13.707Z,1010.97
2019-02-18T02:26:13.684Z,1011
2019-02-18T02:27:13.665Z,1010.98
2019-02-18T02:28:13.643Z,1010.97
2019-02-18T02:29:13.628Z,1010.97
2019-02-18T02:30:13.602Z,1010.96
2019-02-18T02:31:13.588Z,1010.97
2019-02-18T02:32:13.562Z,1010.93
2019-02-18T02:33:13.545Z,1010.97
2019-02-18T02:34:13.528Z,1010.96
2019-02-18T02:35:13.503Z,1010.96
2019-02-18T02:36:13.482Z,1010.97
2019-02-18T02:37:13.462Z,1010.96
2019-02-18T02:38:13.444Z,1010.95
2019-02-18T02:39:13.442Z,1010.94
2019-02-18T02:40:13.414Z,1010.92
2019-02-18T02:41:13.385Z,1010.97
2019-02-18T02:42:13.361Z,1010.96
2019-02-18T02:43:13.350Z,1010.94
2019-02-18T02:44:13.324Z,1010.95
2019-02-18T02:45:13.308Z,1010.95
2019-02-18T02:46:13.281Z,1010.96
2019-02-18T02:47:13.327Z,1010.94
2019-02-18T02:48:13.239Z,1010.94
2019-02-18T02:49:13.221Z,1010.95
2019-02-18T02:50:13.201Z,1010.97
2019-02-18T02:51:13.179Z,1010.97
2019-02-18T02:52:13.271Z,1010.9
2019-02-18T02:53:13.138Z,1010.94
2019-02-18T02:54:13.121Z,1011
2019-02-18T02:55:13.099Z,1010.96
2019-02-18T02:56:13.076Z,1010.93
2019-02-18T02:57:13.059Z,1010.99
2019-02-18T02:58:13.041Z,1010.98
2019-02-18T02:59:13.018Z,1010.96
2019-02-18T03:00:12.997Z,1010.95
2019-02-18T03:01:12.978Z,1010.93
2019-02-18T03:02:12.955Z,1010.97
2019-02-18T03:03:12.935Z,1010.93
2019-02-18T03:04:12.918Z,1010.94
2019-02-18T03:05:12.896Z,1010.89
2019-02-18T03:06:12.875Z,1010.9
2019-02-18T03:07:12.856Z,1010.91
2019-02-18T03:08:20.160Z,1010.9
2019-02-18T03:09:12.816Z,1010.94
2019-02-18T03:10:12.794Z,1010.91
2019-02-18T03:11:12.774Z,1010.88
2019-02-18T03:12:12.753Z,1010.93
2019-02-18T03:13:12.746Z,1010.91
2019-02-18T03:14:12.712Z,1010.94
2019-02-18T03:15:12.695Z,1010.9
2019-02-18T03:16:12.685Z,1010.91
2019-02-18T03:17:12.703Z,1010.91
2019-02-18T03:18:12.635Z,1010.89
2019-02-18T03:19:12.616Z,1010.93
2019-02-18T03:20:12.590Z,1010.94
2019-02-18T03:21:12.571Z,1010.91
2019-02-18T03:22:12.552Z,1010.89
2019-02-18T03:23:12.529Z,1010.9
2019-02-18T03:24:12.510Z,1010.91
2019-02-18T03:25:12.490Z,1010.9
2019-02-18T03:26:12.470Z,1010.91
2019-02-18T03:27:12.448Z,1010.9
2019-02-18T03:28:12.432Z,1010.91
2019-02-18T03:29:12.411Z,1010.91
2019-02-18T03:30:12.387Z,1010.91
2019-02-18T03:31:12.371Z,1010.88
2019-02-18T03:32:12.346Z,1010.97
2019-02-18T03:33:12.327Z,1010.89
2019-02-18T03:34:12.307Z,1010.94
2019-02-18T03:35:12.285Z,1010.94
2019-02-18T03:36:12.266Z,1010.92
2019-02-18T03:37:12.447Z,1010.9
2019-02-18T03:38:12.356Z,1010.95
2019-02-18T03:39:12.203Z,1010.95
2019-02-18T03:40:12.185Z,1010.94
2019-02-18T03:41:12.172Z,1010.92
2019-02-18T03:42:12.143Z,1010.91
2019-02-18T03:43:12.122Z,1010.93
2019-02-18T03:44:12.103Z,1010.96
2019-02-18T03:45:12.087Z,1010.95
2019-02-18T03:46:12.061Z,1010.96
2019-02-18T03:47:12.043Z,1010.99
2019-02-18T03:48:12.021Z,1010.98
2019-02-18T03:49:12.003Z,1010.96
2019-02-18T03:50:11.987Z,1010.94
2019-02-18T03:51:11.958Z,1010.98
2019-02-18T03:52:11.939Z,1010.97
2019-02-18T03:53:11.920Z,1010.99
2019-02-18T03:54:11.898Z,1011.01
2019-02-18T03:55:11.877Z,1011.02
2019-02-18T03:56:11.865Z,1010.98
2019-02-18T03:57:11.838Z,1010.95
2019-02-18T03:58:11.814Z,1010.99
2019-02-18T03:59:11.795Z,1011.01
2019-02-18T04:00:11.775Z,1010.99
2019-02-18T04:01:11.754Z,1010.97
2019-02-18T04:02:11.737Z,1011.01
2019-02-18T04:03:11.712Z,1011
2019-02-18T04:04:11.693Z,1010.98
2019-02-18T04:05:11.674Z,1010.98
2019-02-18T04:06:11.651Z,1010.96
2019-02-18T04:07:11.636Z,1010.97
2019-02-18T04:08:11.610Z,1010.93
2019-02-18T04:09:11.588Z,1010.93
2019-02-18T04:10:11.575Z,1010.97
2019-02-18T04:11:11.555Z,1010.98
2019-02-18T04:12:11.538Z,1010.94
2019-02-18T04:13:11.509Z,1010.92
2019-02-18T04:14:11.489Z,1010.9
2019-02-18T04:15:11.466Z,1010.92
2019-02-18T04:16:11.473Z,1010.88
2019-02-18T04:17:11.426Z,1010.89
2019-02-18T04:18:11.407Z,1010.89
2019-02-18T04:19:11.385Z,1010.86
2019-02-18T04:20:11.362Z,1010.88
2019-02-18T04:21:11.399Z,1010.88
2019-02-18T04:22:11.323Z,1010.88
2019-02-18T04:23:11.301Z,1010.86
2019-02-18T04:24:11.283Z,1010.89
2019-02-18T04:25:11.261Z,1010.87
2019-02-18T04:26:11.242Z,1010.85
2019-02-18T04:27:11.220Z,1010.87
2019-02-18T04:28:11.242Z,1010.85
2019-02-18T04:29:11.179Z,1010.87
2019-02-18T04:30:13.582Z,1010.86
2019-02-18T04:31:11.148Z,1010.83
2019-02-18T04:32:11.119Z,1010.83
2019-02-18T04:33:11.097Z,1010.84
2019-02-18T04:34:11.085Z,1010.81
2019-02-18T04:35:11.056Z,1010.83
2019-02-18T04:36:11.032Z,1010.79
2019-02-18T04:37:11.013Z,1010.82
2019-02-18T04:38:11.047Z,1010.81
2019-02-18T04:39:10.982Z,1010.8
2019-02-18T04:40:10.951Z,1010.84
2019-02-18T04:41:10.937Z,1010.82
2019-02-18T04:42:10.911Z,1010.82
2019-02-18T04:43:10.889Z,1010.81
2019-02-18T04:44:10.873Z,1010.83
2019-02-18T04:45:10.846Z,1010.84
2019-02-18T04:46:10.827Z,1010.81
2019-02-18T04:47:10.807Z,1010.84
2019-02-18T04:48:10.807Z,1010.81
2019-02-18T04:49:10.766Z,1010.81
2019-02-18T04:50:10.745Z,1010.79
2019-02-18T04:51:10.724Z,1010.79
2019-02-18T04:52:10.703Z,1010.8
2019-02-18T04:53:10.685Z,1010.81
2019-02-18T04:54:10.726Z,1010.85
2019-02-18T04:55:10.641Z,1010.84
2019-02-18T04:56:10.622Z,1010.82
2019-02-18T04:57:10.599Z,1010.88
2019-02-18T04:58:10.589Z,1010.86
2019-02-18T04:59:10.558Z,1010.84
2019-02-18T05:00:10.537Z,1010.85
2019-02-18T05:01:10.514Z,1010.83
2019-02-18T05:02:10.495Z,1010.83
2019-02-18T05:03:10.476Z,1010.86
2019-02-18T05:04:10.455Z,1010.82
2019-02-18T05:05:10.438Z,1010.79
2019-02-18T05:06:10.414Z,1010.75
2019-02-18T05:07:10.395Z,1010.77
2019-02-18T05:08:10.370Z,1010.78
2019-02-18T05:09:10.349Z,1010.77
2019-02-18T05:10:10.331Z,1010.75
2019-02-18T05:11:10.308Z,1010.75
2019-02-18T05:12:10.290Z,1010.77
2019-02-18T05:13:10.268Z,1010.75
2019-02-18T05:14:10.246Z,1010.74
2019-02-18T05:15:10.225Z,1010.72
2019-02-18T05:16:10.214Z,1010.75
2019-02-18T05:17:10.184Z,1010.77
2019-02-18T05:18:10.167Z,1010.74
2019-02-18T05:19:10.144Z,1010.76
2019-02-18T05:20:10.120Z,1010.74
2019-02-18T05:21:10.100Z,1010.71
2019-02-18T05:22:10.329Z,1010.7
2019-02-18T05:23:10.057Z,1010.72
2019-02-18T05:24:10.039Z,1010.68
2019-02-18T05:25:10.021Z,1010.68
2019-02-18T05:26:09.994Z,1010.72
2019-02-18T05:27:09.977Z,1010.66
2019-02-18T05:28:09.956Z,1010.65
2019-02-18T05:29:09.960Z,1010.65
2019-02-18T05:30:09.915Z,1010.67
2019-02-18T05:31:09.896Z,1010.63
2019-02-18T05:32:09.870Z,1010.61
2019-02-18T05:33:09.854Z,1010.6
2019-02-18T05:34:09.830Z,1010.56
2019-02-18T05:35:09.809Z,1010.56
2019-02-18T05:36:09.792Z,1010.54
2019-02-18T05:37:09.971Z,1010.57
2019-02-18T05:38:09.770Z,1010.56
2019-02-18T05:39:17.704Z,1010.54
2019-02-18T05:40:09.705Z,1010.52
2019-02-18T05:41:09.687Z,1010.57
2019-02-18T05:42:09.671Z,1010.53
2019-02-18T05:43:09.644Z,1010.54
2019-02-18T05:44:09.620Z,1010.53
2019-02-18T05:45:09.600Z,1010.47
2019-02-18T05:46:09.579Z,1010.51
2019-02-18T05:47:09.561Z,1010.51
2019-02-18T05:48:09.541Z,1010.51
2019-02-18T05:49:09.524Z,1010.46
2019-02-18T05:50:09.496Z,1010.49
2019-02-18T05:51:09.477Z,1010.46
2019-02-18T05:52:09.460Z,1010.47
2019-02-18T05:53:09.431Z,1010.46
2019-02-18T05:54:09.412Z,1010.42
2019-02-18T05:55:09.402Z,1010.44
2019-02-18T05:56:09.556Z,1010.44
2019-02-18T05:57:09.349Z,1010.46
2019-02-18T05:58:09.331Z,1010.45
2019-02-18T05:59:09.361Z,1010.45
2019-02-18T06:00:09.287Z,1010.47
2019-02-18T06:01:09.266Z,1010.45
2019-02-18T06:02:09.245Z,1010.45
2019-02-18T06:03:09.226Z,1010.44
2019-02-18T06:04:09.201Z,1010.41
2019-02-18T06:05:09.186Z,1010.42
2019-02-18T06:06:09.159Z,1010.44
2019-02-18T06:07:09.143Z,1010.42
2019-02-18T06:08:09.120Z,1010.42
2019-02-18T06:09:09.112Z,1010.39
2019-02-18T06:10:09.085Z,1010.37
2019-02-18T06:11:09.064Z,1010.37
2019-02-18T06:12:09.033Z,1010.38
2019-02-18T06:13:09.011Z,1010.39
2019-02-18T06:14:08.991Z,1010.4
2019-02-18T06:15:08.998Z,1010.4
2019-02-18T06:16:08.959Z,1010.45
2019-02-18T06:17:08.928Z,1010.42
2019-02-18T06:18:08.914Z,1010.4
2019-02-18T06:19:08.885Z,1010.43
2019-02-18T06:20:08.864Z,1010.47
2019-02-18T06:21:08.847Z,1010.44
2019-02-18T06:22:08.823Z,1010.45
2019-02-18T06:23:08.901Z,1010.44
2019-02-18T06:24:08.797Z,1010.45
2019-02-18T06:25:08.763Z,1010.43
2019-02-18T06:26:08.737Z,1010.45
2019-02-18T06:27:08.722Z,1010.48
2019-02-18T06:28:08.694Z,1010.48
2019-02-18T06:29:08.682Z,1010.5
2019-02-18T06:30:08.655Z,1010.48
2019-02-18T06:31:08.631Z,1010.5
2019-02-18T06:32:08.609Z,1010.47
2019-02-18T06:33:08.590Z,1010.46
2019-02-18T06:34:08.616Z,1010.51
2019-02-18T06:35:08.546Z,1010.47
2019-02-18T06:36:08.530Z,1010.55
2019-02-18T06:37:08.507Z,1010.54
2019-02-18T06:38:08.495Z,1010.53
2019-02-18T06:39:08.462Z,1010.54
2019-02-18T06:40:08.444Z,1010.54
2019-02-18T06:41:08.423Z,1010.53
2019-02-18T06:42:08.396Z,1010.52
2019-02-18T06:43:08.379Z,1010.47
2019-02-18T06:44:08.387Z,1010.5
2019-02-18T06:45:08.342Z,1010.5
2019-02-18T06:46:08.311Z,1010.53
2019-02-18T06:47:08.290Z,1010.52
2019-02-18T06:48:08.522Z,1010.57
2019-02-18T06:49:08.281Z,1010.48
2019-02-18T06:50:08.227Z,1010.53
2019-02-18T06:51:08.206Z,1010.55
2019-02-18T06:52:08.186Z,1010.58
2019-02-18T06:53:08.163Z,1010.57
2019-02-18T06:54:08.142Z,1010.59
2019-02-18T06:55:08.121Z,1010.61
2019-02-18T06:56:08.103Z,1010.6
2019-02-18T06:57:08.080Z,1010.58
2019-02-18T06:58:08.063Z,1010.59
2019-02-18T06:59:08.043Z,1010.57
2019-02-18T07:00:08.041Z,1010.58
2019-02-18T07:01:07.994Z,1010.57
2019-02-18T07:02:07.971Z,1010.57
2019-02-18T07:03:07.953Z,1010.6
2019-02-18T07:04:07.931Z,1010.6
2019-02-18T07:05:07.908Z,1010.6
2019-02-18T07:06:07.889Z,1010.62
2019-02-18T07:07:07.865Z,1010.59
2019-02-18T07:08:07.846Z,1010.65
2019-02-18T07:09:07.826Z,1010.65
2019-02-18T07:10:07.804Z,1010.64
2019-02-18T07:11:07.782Z,1010.62
2019-02-18T07:12:07.758Z,1010.67
2019-02-18T07:13:07.746Z,1010.67
2019-02-18T07:14:07.721Z,1010.67
2019-02-18T07:15:07.697Z,1010.63
2019-02-18T07:16:07.677Z,1010.66
2019-02-18T07:17:07.653Z,1010.67
2019-02-18T07:18:07.633Z,1010.68
2019-02-18T07:19:07.611Z,1010.66
2019-02-18T07:20:07.597Z,1010.71
2019-02-18T07:21:07.569Z,1010.66
2019-02-18T07:22:07.553Z,1010.66
2019-02-18T07:23:07.528Z,1010.65
2019-02-18T07:24:07.507Z,1010.65
2019-02-18T07:25:07.489Z,1010.67
2019-02-18T07:26:07.465Z,1010.62
2019-02-18T07:27:07.441Z,1010.6
2019-02-18T07:28:07.421Z,1010.58
2019-02-18T07:29:07.403Z,1010.6
2019-02-18T07:30:07.379Z,1010.59
2019-02-18T07:31:07.358Z,1010.55
2019-02-18T07:32:07.338Z,1010.6
2019-02-18T07:33:07.333Z,1010.56
2019-02-18T07:34:07.301Z,1010.6
2019-02-18T07:35:07.290Z,1010.6
2019-02-18T07:36:07.254Z,1010.62
2019-02-18T07:37:07.436Z,1010.59
2019-02-18T07:38:07.210Z,1010.64
2019-02-18T07:39:07.192Z,1010.62
2019-02-18T07:40:07.171Z,1010.62
2019-02-18T07:41:07.148Z,1010.58
2019-02-18T07:42:07.126Z,1010.57
2019-02-18T07:43:07.105Z,1010.6
2019-02-18T07:44:07.085Z,1010.57
2019-02-18T07:45:07.068Z,1010.57
2019-02-18T07:46:07.043Z,1010.56
2019-02-18T07:47:07.037Z,1010.56
2019-02-18T07:48:07.001Z,1010.51
2019-02-18T07:49:06.984Z,1010.56
2019-02-18T07:50:06.962Z,1010.53
2019-02-18T07:51:06.940Z,1010.52
2019-02-18T07:52:06.917Z,1010.5
2019-02-18T07:53:06.899Z,1010.49
2019-02-18T07:54:06.876Z,1010.49
2019-02-18T07:55:06.856Z,1010.51
2019-02-18T07:56:06.836Z,1010.5
2019-02-18T07:57:06.813Z,1010.53
2019-02-18T07:58:06.806Z,1010.53
2019-02-18T07:59:06.772Z,1010.5
2019-02-18T08:00:06.752Z,1010.51
2019-02-18T08:01:06.732Z,1010.52
2019-02-18T08:02:06.712Z,1010.53
2019-02-18T08:03:06.694Z,1010.5
2019-02-18T08:04:06.668Z,1010.52
2019-02-18T08:05:06.650Z,1010.53
2019-02-18T08:06:06.631Z,1010.48
2019-02-18T08:07:06.608Z,1010.52
2019-02-18T08:08:06.625Z,1010.51
2019-02-18T08:09:06.568Z,1010.52
2019-02-18T08:10:11.952Z,1010.56
2019-02-18T08:11:06.528Z,1010.53
2019-02-18T08:12:06.508Z,1010.59
2019-02-18T08:13:06.486Z,1010.62
2019-02-18T08:14:06.464Z,1010.63
2019-02-18T08:15:06.448Z,1010.61
2019-02-18T08:16:06.429Z,1010.58
2019-02-18T08:17:06.404Z,1010.54
2019-02-18T08:18:06.387Z,1010.54
2019-02-18T08:19:06.375Z,1010.51
2019-02-18T08:20:06.345Z,1010.52
2019-02-18T08:21:06.330Z,1010.52
2019-02-18T08:22:06.305Z,1010.51
2019-02-18T08:23:06.287Z,1010.51
2019-02-18T08:24:06.262Z,1010.52
2019-02-18T08:25:06.243Z,1010.51
2019-02-18T08:26:06.227Z,1010.53
2019-02-18T08:27:06.209Z,1010.51
2019-02-18T08:28:06.187Z,1010.47
2019-02-18T08:29:06.165Z,1010.51
2019-02-18T08:30:06.145Z,1010.52
2019-02-18T08:31:06.129Z,1010.48
2019-02-18T08:32:06.109Z,1010.45
2019-02-18T08:33:06.086Z,1010.44
2019-02-18T08:34:06.076Z,1010.47
2019-02-18T08:35:06.051Z,1010.5
2019-02-18T08:36:06.027Z,1010.56
2019-02-18T08:37:06.010Z,1010.54
2019-02-18T08:38:05.992Z,1010.52
2019-02-18T08:39:05.971Z,1010.56
2019-02-18T08:40:05.954Z,1010.58
2019-02-18T08:41:05.934Z,1010.56
2019-02-18T08:42:05.919Z,1010.54
2019-02-18T08:43:05.896Z,1010.55
2019-02-18T08:44:05.887Z,1010.6
2019-02-18T08:45:05.860Z,1010.62
2019-02-18T08:46:05.842Z,1010.64
2019-02-18T08:47:05.826Z,1010.58
2019-02-18T08:48:05.810Z,1010.55
2019-02-18T08:49:05.798Z,1010.51
2019-02-18T08:50:05.775Z,1010.53
2019-02-18T08:51:05.760Z,1010.5
2019-02-18T08:52:05.741Z,1010.52
2019-02-18T08:53:05.727Z,1010.48
2019-02-18T08:54:05.709Z,1010.48
2019-02-18T08:55:05.697Z,1010.45
2019-02-18T08:56:05.681Z,1010.47
2019-02-18T08:57:05.663Z,1010.49
2019-02-18T08:58:05.648Z,1010.46
2019-02-18T08:59:05.633Z,1010.5
2019-02-18T09:00:05.620Z,1010.53
2019-02-18T09:01:05.604Z,1010.46
2019-02-18T09:02:05.589Z,1010.47
2019-02-18T09:03:05.576Z,1010.46
2019-02-18T09:04:05.563Z,1010.46
2019-02-18T09:05:05.596Z,1010.47
2019-02-18T09:06:05.543Z,1010.44
2019-02-18T09:07:05.559Z,1010.41
2019-02-18T09:08:05.504Z,1010.39
2019-02-18T09:09:05.491Z,1010.39
2019-02-18T09:10:05.475Z,1010.4
2019-02-18T09:11:05.462Z,1010.43
2019-02-18T09:12:05.448Z,1010.39
2019-02-18T09:13:05.437Z,1010.4
2019-02-18T09:14:05.424Z,1010.34
2019-02-18T09:15:05.412Z,1010.35
2019-02-18T09:16:05.397Z,1010.34
2019-02-18T09:17:05.383Z,1010.31
2019-02-18T09:18:05.372Z,1010.3
2019-02-18T09:19:05.359Z,1010.31
2019-02-18T09:20:05.353Z,1010.29
2019-02-18T09:21:05.333Z,1010.29
2019-02-18T09:22:05.320Z,1010.35
2019-02-18T09:23:05.308Z,1010.3
2019-02-18T09:24:05.293Z,1010.32
2019-02-18T09:25:05.285Z,1010.34
2019-02-18T09:26:05.272Z,1010.3
2019-02-18T09:27:05.255Z,1010.3
2019-02-18T09:28:05.244Z,1010.3
2019-02-18T09:29:05.229Z,1010.27
2019-02-18T09:30:05.218Z,1010.25
2019-02-18T09:31:05.203Z,1010.23
2019-02-18T09:32:05.190Z,1010.21
2019-02-18T09:33:05.178Z,1010.2
2019-02-18T09:34:05.166Z,1010.2
2019-02-18T09:35:05.152Z,1010.23
2019-02-18T09:36:05.143Z,1010.21
2019-02-18T09:37:05.329Z,1010.25
2019-02-18T09:38:05.117Z,1010.22
2019-02-18T09:39:05.109Z,1010.27
2019-02-18T09:40:05.089Z,1010.25
2019-02-18T09:41:05.075Z,1010.25
2019-02-18T09:42:05.064Z,1010.23
2019-02-18T09:43:05.055Z,1010.28
2019-02-18T09:44:05.038Z,1010.31
2019-02-18T09:45:05.025Z,1010.26
2019-02-18T09:46:05.022Z,1010.24
2019-02-18T09:47:05.003Z,1010.25
2019-02-18T09:48:04.988Z,1010.26
2019-02-18T09:49:04.978Z,1010.33
2019-02-18T09:50:05.027Z,1010.31
2019-02-18T09:51:04.955Z,1010.33
2019-02-18T09:52:04.939Z,1010.29
2019-02-18T09:53:04.927Z,1010.29
2019-02-18T09:54:04.915Z,1010.32
2019-02-18T09:55:04.925Z,1010.32
2019-02-18T09:56:04.896Z,1010.29
2019-02-18T09:57:04.881Z,1010.27
2019-02-18T09:58:04.871Z,1010.27
2019-02-18T09:59:04.858Z,1010.23
2019-02-18T10:00:04.845Z,1010.22
2019-02-18T10:01:04.833Z,1010.18
2019-02-18T10:02:04.822Z,1010.2
2019-02-18T10:03:04.811Z,1010.2
2019-02-18T10:04:04.799Z,1010.18
2019-02-18T10:05:04.789Z,1010.18
2019-02-18T10:06:04.774Z,1010.18
2019-02-18T10:07:04.764Z,1010.18
2019-02-18T10:08:04.751Z,1010.22
2019-02-18T10:09:04.738Z,1010.2
2019-02-18T10:10:04.886Z,1010.19
2019-02-18T10:11:04.716Z,1010.23
2019-02-18T10:12:04.703Z,1010.27
2019-02-18T10:13:04.692Z,1010.28
2019-02-18T10:14:04.677Z,1010.29
2019-02-18T10:15:04.667Z,1010.3
2019-02-18T10:16:04.656Z,1010.28
2019-02-18T10:17:04.645Z,1010.28
2019-02-18T10:18:04.638Z,1010.25
2019-02-18T10:19:04.623Z,1010.28
2019-02-18T10:20:04.613Z,1010.25
2019-02-18T10:21:04.606Z,1010.23
2019-02-18T10:22:04.594Z,1010.22
2019-02-18T10:23:04.601Z,1010.18
2019-02-18T10:24:04.573Z,1010.18
2019-02-18T10:25:04.562Z,1010.13
2019-02-18T10:26:04.551Z,1010.14
2019-02-18T10:27:04.543Z,1010.1
2019-02-18T10:28:04.534Z,1010.13
2019-02-18T10:29:04.577Z,1010.13
2019-02-18T10:30:04.518Z,1010.12
2019-02-18T10:31:04.518Z,1010.11
2019-02-18T10:32:04.500Z,1010.1
2019-02-18T10:33:04.489Z,1010.11
2019-02-18T10:34:04.504Z,1010.14
2019-02-18T10:35:04.470Z,1010.17
2019-02-18T10:36:04.467Z,1010.14
2019-02-18T10:37:04.452Z,1010.12
2019-02-18T10:38:04.464Z,1010.08
2019-02-18T10:39:04.437Z,1010.12
2019-02-18T10:40:04.428Z,1010.13
2019-02-18T10:41:07.125Z,1010.09
2019-02-18T10:42:04.421Z,1010.12
2019-02-18T10:43:04.403Z,1010.1
2019-02-18T10:44:04.391Z,1010.1
2019-02-18T10:45:04.386Z,1010.07
2019-02-18T10:46:04.375Z,1010.02
2019-02-18T10:47:04.369Z,1010.03
2019-02-18T10:48:04.357Z,1010
2019-02-18T10:49:04.350Z,1009.93
2019-02-18T10:50:04.344Z,1009.92
2019-02-18T10:51:04.334Z,1009.98
2019-02-18T10:52:04.326Z,1009.98
2019-02-18T10:53:04.321Z,1010.01
2019-02-18T10:54:04.321Z,1009.97
2019-02-18T10:55:04.304Z,1009.94
2019-02-18T10:56:04.296Z,1009.93
2019-02-18T10:57:04.287Z,1009.95
2019-02-18T10:58:04.279Z,1009.92
2019-02-18T10:59:04.283Z,1009.92
2019-02-18T11:00:04.267Z,1009.93
2019-02-18T11:01:04.258Z,1009.91
2019-02-18T11:02:04.280Z,1009.88
2019-02-18T11:03:04.242Z,1009.9
2019-02-18T11:04:04.238Z,1009.9
2019-02-18T11:05:04.229Z,1009.9
2019-02-18T11:06:04.219Z,1009.89
2019-02-18T11:07:04.219Z,1009.94
2019-02-18T11:08:04.223Z,1009.87
2019-02-18T11:09:04.200Z,1009.86
2019-02-18T11:10:04.195Z,1009.86
2019-02-18T11:11:04.185Z,1009.77
2019-02-18T11:12:04.178Z,1009.81
2019-02-18T11:13:04.181Z,1009.84
2019-02-18T11:14:04.165Z,1009.72
2019-02-18T11:15:04.155Z,1009.69
2019-02-18T11:16:04.146Z,1009.66
2019-02-18T11:17:04.140Z,1009.69
2019-02-18T11:18:04.135Z,1009.69
2019-02-18T11:19:04.130Z,1009.64
2019-02-18T11:20:04.119Z,1009.63
2019-02-18T11:21:04.110Z,1009.59
2019-02-18T11:22:04.102Z,1009.55
2019-02-18T11:23:04.097Z,1009.6
2019-02-18T11:24:04.095Z,1009.61
2019-02-18T11:25:04.079Z,1009.59
2019-02-18T11:26:04.074Z,1009.54
2019-02-18T11:27:04.063Z,1009.56
2019-02-18T11:28:04.071Z,1009.53
2019-02-18T11:29:04.048Z,1009.53
2019-02-18T11:30:04.044Z,1009.55
2019-02-18T11:31:04.034Z,1009.52
2019-02-18T11:32:04.028Z,1009.43
2019-02-18T11:33:04.022Z,1009.43
2019-02-18T11:34:04.066Z,1009.38
2019-02-18T11:35:04.003Z,1009.39
2019-02-18T11:36:04.000Z,1009.4
2019-02-18T11:37:04.191Z,1009.38
2019-02-18T11:38:03.980Z,1009.36
2019-02-18T11:39:03.978Z,1009.33
2019-02-18T11:40:03.982Z,1009.33
2019-02-18T11:41:03.960Z,1009.32
2019-02-18T11:42:03.951Z,1009.37
2019-02-18T11:43:03.948Z,1009.32
2019-02-18T11:44:03.940Z,1009.3
2019-02-18T11:45:03.933Z,1009.33
2019-02-18T11:46:03.931Z,1009.34
2019-02-18T11:47:03.925Z,1009.36
2019-02-18T11:48:03.925Z,1009.36
2019-02-18T11:49:03.915Z,1009.31
2019-02-18T11:50:03.902Z,1009.25
2019-02-18T11:51:03.899Z,1009.28
2019-02-18T11:52:03.900Z,1009.28
2019-02-18T11:53:03.951Z,1009.29
2019-02-18T11:54:03.879Z,1009.24
2019-02-18T11:55:03.872Z,1009.21
2019-02-18T11:56:03.867Z,1009.22
2019-02-18T11:57:03.865Z,1009.2
2019-02-18T11:58:03.866Z,1009.22
2019-02-18T11:59:03.849Z,1009.17
2019-02-18T12:00:03.843Z,1009.18
2019-02-18T12:01:03.839Z,1009.13
2019-02-18T12:02:03.831Z,1009.14
2019-02-18T12:03:09.450Z,1009.19
2019-02-18T12:04:03.827Z,1009.1
2019-02-18T12:05:03.817Z,1009.12
2019-02-18T12:06:03.820Z,1009.14
2019-02-18T12:07:03.807Z,1009.14
2019-02-18T12:08:03.813Z,1009.14